sensor_id;sensor_type;location;lat;lon;timestamp;pressure;altitude;pressure_sealevel;temperature;humidity
51249;BME280;39642;47.556;18.728;2022-07-23T00:02:06;99547.66;;;26.94;41.02
51249;BME280;39642;47.556;18.728;2022-07-23T00:04:33;99545.81;;;26.95;40.95
51249;BME280;39642;47.556;18.728;2022-07-23T00:06:59;99545.97;;;26.93;40.95
51249;BME280;39642;47.556;18.728;2022-07-23T00:09:25;99548.50;;;26.95;40.92
51249;BME280;39642;47.556;18.728;2022-07-23T00:11:50;99546.69;;;26.95;40.93
51249;BME280;39642;47.556;18.728;2022-07-23T00:14:16;99546.81;;;26.94;40.94
51249;BME280;39642;47.556;18.728;2022-07-23T00:16:42;99542.31;;;26.94;40.93
51249;BME280;39642;47.556;18.728;2022-07-23T00:19:08;99537.09;;;26.93;40.95
51249;BME280;39642;47.556;18.728;2022-07-23T00:21:34;99542.44;;;26.93;40.93
51249;BME280;39642;47.556;18.728;2022-07-23T00:24:00;99544.16;;;26.94;40.90
51249;BME280;39642;47.556;18.728;2022-07-23T00:26:26;99542.44;;;26.93;40.91
51249;BME280;39642;47.556;18.728;2022-07-23T00:28:52;99537.97;;;26.93;40.90
51249;BME280;39642;47.556;18.728;2022-07-23T00:31:18;99540.62;;;26.93;40.88
51249;BME280;39642;47.556;18.728;2022-07-23T00:33:44;99535.28;;;26.93;40.88
51249;BME280;39642;47.556;18.728;2022-07-23T00:36:10;99545.09;;;26.93;40.88
51249;BME280;39642;47.556;18.728;2022-07-23T00:38:36;99546.09;;;26.92;40.90
51249;BME280;39642;47.556;18.728;2022-07-23T00:41:02;99544.44;;;26.91;40.89
51249;BME280;39642;47.556;18.728;2022-07-23T00:43:28;99548.91;;;26.90;40.91
51249;BME280;39642;47.556;18.728;2022-07-23T00:45:53;99546.22;;;26.90;40.88
51249;BME280;39642;47.556;18.728;2022-07-23T00:48:19;99546.09;;;26.92;40.88
51249;BME280;39642;47.556;18.728;2022-07-23T00:50:45;99545.28;;;26.91;40.85
51249;BME280;39642;47.556;18.728;2022-07-23T00:53:12;99543.44;;;26.92;40.85
51249;BME280;39642;47.556;18.728;2022-07-23T00:55:38;99539.94;;;26.91;40.84
51249;BME280;39642;47.556;18.728;2022-07-23T00:58:05;99536.41;;;26.91;40.85
51249;BME280;39642;47.556;18.728;2022-07-23T01:00:31;99526.56;;;26.91;40.84
51249;BME280;39642;47.556;18.728;2022-07-23T01:02:57;99539.09;;;26.91;40.85
51249;BME280;39642;47.556;18.728;2022-07-23T01:05:23;99534.72;;;26.90;40.88
51249;BME280;39642;47.556;18.728;2022-07-23T01:07:50;99531.19;;;26.89;40.86
51249;BME280;39642;47.556;18.728;2022-07-23T01:10:17;99531.19;;;26.89;40.89
51249;BME280;39642;47.556;18.728;2022-07-23T01:13:10;99528.53;;;26.89;40.91
51249;BME280;39642;47.556;18.728;2022-07-23T01:15:37;99525.00;;;26.89;40.89
51249;BME280;39642;47.556;18.728;2022-07-23T01:18:05;99529.37;;;26.90;40.84
51249;BME280;39642;47.556;18.728;2022-07-23T01:20:31;99533.88;;;26.89;40.90
51249;BME280;39642;47.556;18.728;2022-07-23T01:22:58;99521.47;;;26.88;40.89
51249;BME280;39642;47.556;18.728;2022-07-23T01:25:24;99529.50;;;26.88;40.90
51249;BME280;39642;47.556;18.728;2022-07-23T01:27:53;99524.16;;;26.88;40.91
51249;BME280;39642;47.556;18.728;2022-07-23T01:30:19;99525.16;;;26.87;40.96
51249;BME280;39642;47.556;18.728;2022-07-23T01:32:46;99525.97;;;26.88;40.93
51249;BME280;39642;47.556;18.728;2022-07-23T01:35:12;99524.31;;;26.87;41.04
51249;BME280;39642;47.556;18.728;2022-07-23T01:37:38;99528.94;;;26.85;40.98
51249;BME280;39642;47.556;18.728;2022-07-23T01:40:05;99519.09;;;26.85;41.02
51249;BME280;39642;47.556;18.728;2022-07-23T01:42:31;99527.94;;;26.86;40.98
51249;BME280;39642;47.556;18.728;2022-07-23T01:44:57;99530.50;;;26.87;40.94
51249;BME280;39642;47.556;18.728;2022-07-23T01:47:23;99519.81;;;26.87;40.97
51249;BME280;39642;47.556;18.728;2022-07-23T01:49:49;99515.41;;;26.86;40.98
51249;BME280;39642;47.556;18.728;2022-07-23T01:52:15;99515.41;;;26.86;40.96
51249;BME280;39642;47.556;18.728;2022-07-23T01:54:42;99518.97;;;26.87;40.96
51249;BME280;39642;47.556;18.728;2022-07-23T01:57:08;99521.63;;;26.87;40.98
51249;BME280;39642;47.556;18.728;2022-07-23T01:59:34;99511.06;;;26.85;40.98
51249;BME280;39642;47.556;18.728;2022-07-23T02:02:00;99520.94;;;26.85;40.98
51249;BME280;39642;47.556;18.728;2022-07-23T02:04:26;99521.75;;;26.85;41.00
51249;BME280;39642;47.556;18.728;2022-07-23T02:06:52;99521.75;;;26.85;40.99
51249;BME280;39642;47.556;18.728;2022-07-23T02:09:19;99529.78;;;26.85;41.00
51249;BME280;39642;47.556;18.728;2022-07-23T02:11:45;99526.28;;;26.85;40.98
51249;BME280;39642;47.556;18.728;2022-07-23T02:14:11;99529.06;;;26.83;41.03
51249;BME280;39642;47.556;18.728;2022-07-23T02:16:37;99529.06;;;26.83;41.00
51249;BME280;39642;47.556;18.728;2022-07-23T02:19:03;99533.44;;;26.84;40.99
51249;BME280;39642;47.556;18.728;2022-07-23T02:21:29;99529.91;;;26.84;40.98
51249;BME280;39642;47.556;18.728;2022-07-23T02:23:55;99529.06;;;26.83;40.99
51249;BME280;39642;47.556;18.728;2022-07-23T02:26:21;99529.91;;;26.84;40.98
51249;BME280;39642;47.556;18.728;2022-07-23T02:28:47;99531.75;;;26.83;41.02
51249;BME280;39642;47.556;18.728;2022-07-23T02:31:13;99529.06;;;26.83;41.01
51249;BME280;39642;47.556;18.728;2022-07-23T02:33:39;99538.06;;;26.82;41.01
51249;BME280;39642;47.556;18.728;2022-07-23T02:36:05;99537.09;;;26.83;41.03
51249;BME280;39642;47.556;18.728;2022-07-23T02:38:31;99532.72;;;26.82;41.01
51249;BME280;39642;47.556;18.728;2022-07-23T02:40:57;99539.03;;;26.81;41.05
51249;BME280;39642;47.556;18.728;2022-07-23T02:43:22;99530.19;;;26.81;41.04
51249;BME280;39642;47.556;18.728;2022-07-23T02:45:48;99527.38;;;26.82;41.04
51249;BME280;39642;47.556;18.728;2022-07-23T02:48:14;99538.06;;;26.82;41.07
51249;BME280;39642;47.556;18.728;2022-07-23T02:50:40;99537.22;;;26.82;41.06
51249;BME280;39642;47.556;18.728;2022-07-23T02:53:06;99532.88;;;26.81;41.10
51249;BME280;39642;47.556;18.728;2022-07-23T02:55:32;99532.03;;;26.80;41.21
51249;BME280;39642;47.556;18.728;2022-07-23T02:57:58;99531.19;;;26.79;41.10
51249;BME280;39642;47.556;18.728;2022-07-23T03:00:24;99537.38;;;26.80;41.07
51249;BME280;39642;47.556;18.728;2022-07-23T03:02:50;99537.38;;;26.80;41.08
51249;BME280;39642;47.556;18.728;2022-07-23T03:05:15;99531.19;;;26.79;41.07
51249;BME280;39642;47.556;18.728;2022-07-23T03:07:41;99534.69;;;26.80;41.05
51249;BME280;39642;47.556;18.728;2022-07-23T03:10:07;99540.03;;;26.80;41.05
51249;BME280;39642;47.556;18.728;2022-07-23T03:12:33;99541.88;;;26.79;41.05
51249;BME280;39642;47.556;18.728;2022-07-23T03:14:59;99538.19;;;26.81;41.01
51249;BME280;39642;47.556;18.728;2022-07-23T03:17:25;99538.19;;;26.81;41.00
51249;BME280;39642;47.556;18.728;2022-07-23T03:19:51;99533.00;;;26.79;41.01
51249;BME280;39642;47.556;18.728;2022-07-23T03:22:17;99533.84;;;26.79;40.98
51249;BME280;39642;47.556;18.728;2022-07-23T03:24:43;99522.31;;;26.79;40.98
51249;BME280;39642;47.556;18.728;2022-07-23T03:27:22;99527.66;;;26.79;40.98
51249;BME280;39642;47.556;18.728;2022-07-23T03:29:49;99525.97;;;26.78;40.98
51249;BME280;39642;47.556;18.728;2022-07-23T03:32:16;99529.47;;;26.78;40.97
51249;BME280;39642;47.556;18.728;2022-07-23T03:34:41;99525.97;;;26.78;40.96
51249;BME280;39642;47.556;18.728;2022-07-23T03:37:07;99525.97;;;26.78;40.96
51249;BME280;39642;47.556;18.728;2022-07-23T03:39:33;99532.28;;;26.77;40.91
51249;BME280;39642;47.556;18.728;2022-07-23T03:41:59;99530.31;;;26.79;40.91
51249;BME280;39642;47.556;18.728;2022-07-23T03:44:25;99537.38;;;26.80;40.89
51249;BME280;39642;47.556;18.728;2022-07-23T03:46:51;99530.31;;;26.79;40.90
51249;BME280;39642;47.556;18.728;2022-07-23T03:49:17;99529.59;;;26.77;40.92
51249;BME280;39642;47.556;18.728;2022-07-23T03:51:43;99526.81;;;26.78;40.85
51249;BME280;39642;47.556;18.728;2022-07-23T03:54:09;99521.47;;;26.78;40.84
51249;BME280;39642;47.556;18.728;2022-07-23T03:56:35;99524.00;;;26.80;40.81
51249;BME280;39642;47.556;18.728;2022-07-23T03:59:01;99526.69;;;26.80;40.83
51249;BME280;39642;47.556;18.728;2022-07-23T04:01:27;99537.38;;;26.80;40.79
51249;BME280;39642;47.556;18.728;2022-07-23T04:03:53;99533.00;;;26.79;40.82
51249;BME280;39642;47.556;18.728;2022-07-23T04:06:18;99527.66;;;26.79;40.81
51249;BME280;39642;47.556;18.728;2022-07-23T04:08:44;99526.81;;;26.78;40.83
51249;BME280;39642;47.556;18.728;2022-07-23T04:11:10;99523.19;;;26.79;40.80
51249;BME280;39642;47.556;18.728;2022-07-23T04:13:36;99528.50;;;26.79;40.79
51249;BME280;39642;47.556;18.728;2022-07-23T04:16:02;99531.03;;;26.81;40.76
51249;BME280;39642;47.556;18.728;2022-07-23T04:18:29;99533.00;;;26.79;40.81
51249;BME280;39642;47.556;18.728;2022-07-23T04:20:55;99533.84;;;26.79;40.80
51249;BME280;39642;47.556;18.728;2022-07-23T04:23:21;99533.69;;;26.81;40.77
51249;BME280;39642;47.556;18.728;2022-07-23T04:25:47;99534.69;;;26.80;40.82
51249;BME280;39642;47.556;18.728;2022-07-23T04:28:13;99537.38;;;26.80;40.86
51249;BME280;39642;47.556;18.728;2022-07-23T04:30:39;99539.19;;;26.79;40.88
51249;BME280;39642;47.556;18.728;2022-07-23T04:33:05;99541.88;;;26.79;40.89
51249;BME280;39642;47.556;18.728;2022-07-23T04:35:34;99538.34;;;26.79;40.90
51249;BME280;39642;47.556;18.728;2022-07-23T04:38:00;99541.00;;;26.79;40.94
51249;BME280;39642;47.556;18.728;2022-07-23T04:40:27;99534.69;;;26.80;40.94
51249;BME280;39642;47.556;18.728;2022-07-23T04:42:53;99542.72;;;26.80;40.96
51249;BME280;39642;47.556;18.728;2022-07-23T04:45:19;99542.00;;;26.78;40.98
51249;BME280;39642;47.556;18.728;2022-07-23T04:47:45;99537.50;;;26.78;41.02
51249;BME280;39642;47.556;18.728;2022-07-23T04:50:11;99538.34;;;26.79;41.02
51249;BME280;39642;47.556;18.728;2022-07-23T04:52:37;99543.53;;;26.81;41.07
51249;BME280;39642;47.556;18.728;2022-07-23T04:55:03;99541.88;;;26.79;41.21
51249;BME280;39642;47.556;18.728;2022-07-23T04:57:29;99538.34;;;26.79;41.33
51249;BME280;39642;47.556;18.728;2022-07-23T04:59:55;99546.34;;;26.79;41.15
51249;BME280;39642;47.556;18.728;2022-07-23T05:02:21;99537.38;;;26.80;41.14
51249;BME280;39642;47.556;18.728;2022-07-23T05:04:47;99535.66;;;26.79;41.19
51249;BME280;39642;47.556;18.728;2022-07-23T05:07:13;99536.37;;;26.81;41.23
51249;BME280;39642;47.556;18.728;2022-07-23T05:09:39;99541.88;;;26.79;41.24
51249;BME280;39642;47.556;18.728;2022-07-23T05:12:05;99535.66;;;26.79;41.33
51249;BME280;39642;47.556;18.728;2022-07-23T05:14:30;99539.19;;;26.79;41.35
51249;BME280;39642;47.556;18.728;2022-07-23T05:16:56;99534.69;;;26.80;41.28
51249;BME280;39642;47.556;18.728;2022-07-23T05:19:22;99532.88;;;26.81;41.35
51249;BME280;39642;47.556;18.728;2022-07-23T05:21:48;99541.72;;;26.81;41.37
51249;BME280;39642;47.556;18.728;2022-07-23T05:24:14;99541.72;;;26.81;41.32
51249;BME280;39642;47.556;18.728;2022-07-23T05:26:40;99537.09;;;26.83;41.36
51249;BME280;39642;47.556;18.728;2022-07-23T05:29:06;99539.75;;;26.83;41.34
51249;BME280;39642;47.556;18.728;2022-07-23T05:31:32;99544.25;;;26.83;41.33
51249;BME280;39642;47.556;18.728;2022-07-23T05:33:58;99546.81;;;26.84;41.33
51249;BME280;39642;47.556;18.728;2022-07-23T05:36:24;99544.13;;;26.84;41.34
51249;BME280;39642;47.556;18.728;2022-07-23T05:38:50;99542.28;;;26.85;41.35
51249;BME280;39642;47.556;18.728;2022-07-23T05:41:16;99553.81;;;26.85;41.34
51249;BME280;39642;47.556;18.728;2022-07-23T05:43:42;99550.16;;;26.86;41.32
51249;BME280;39642;47.556;18.728;2022-07-23T05:46:08;99550.16;;;26.86;41.35
51249;BME280;39642;47.556;18.728;2022-07-23T05:48:34;99540.47;;;26.85;41.36
51249;BME280;39642;47.556;18.728;2022-07-23T05:50:59;99543.00;;;26.87;41.36
51249;BME280;39642;47.556;18.728;2022-07-23T05:53:26;99532.31;;;26.87;41.34
51249;BME280;39642;47.556;18.728;2022-07-23T05:55:52;99537.66;;;26.87;41.35
51249;BME280;39642;47.556;18.728;2022-07-23T05:58:18;99536.66;;;26.88;41.33
51249;BME280;39642;47.556;18.728;2022-07-23T06:00:44;99533.88;;;26.89;41.34
51249;BME280;39642;47.556;18.728;2022-07-23T06:03:10;99531.19;;;26.89;41.34
51249;BME280;39642;47.556;18.728;2022-07-23T06:05:35;99532.88;;;26.90;41.31
51249;BME280;39642;47.556;18.728;2022-07-23T06:08:01;99536.41;;;26.91;41.30
51249;BME280;39642;47.556;18.728;2022-07-23T06:10:27;99528.41;;;26.91;41.35
51249;BME280;39642;47.556;18.728;2022-07-23T06:12:53;99533.75;;;26.91;41.32
51249;BME280;39642;47.556;18.728;2022-07-23T06:15:19;99531.91;;;26.91;41.30
51249;BME280;39642;47.556;18.728;2022-07-23T06:17:45;99529.25;;;26.91;41.33
51249;BME280;39642;47.556;18.728;2022-07-23T06:20:11;99528.41;;;26.91;41.35
51249;BME280;39642;47.556;18.728;2022-07-23T06:22:37;99523.88;;;26.91;41.31
51249;BME280;39642;47.556;18.728;2022-07-23T06:25:04;99524.59;;;26.93;41.29
51249;BME280;39642;47.556;18.728;2022-07-23T06:27:30;99522.91;;;26.92;41.30
51249;BME280;39642;47.556;18.728;2022-07-23T06:29:56;99524.59;;;26.93;41.30
51249;BME280;39642;47.556;18.728;2022-07-23T06:32:22;99520.09;;;26.94;41.29
51249;BME280;39642;47.556;18.728;2022-07-23T06:34:47;99528.13;;;26.94;41.28
51249;BME280;39642;47.556;18.728;2022-07-23T06:37:13;99518.25;;;26.94;41.25
51249;BME280;39642;47.556;18.728;2022-07-23T06:39:39;99525.31;;;26.95;41.26
51249;BME280;39642;47.556;18.728;2022-07-23T06:42:05;99525.44;;;26.94;41.25
51249;BME280;39642;47.556;18.728;2022-07-23T06:44:31;99522.63;;;26.95;41.27
51249;BME280;39642;47.556;18.728;2022-07-23T06:46:57;99527.97;;;26.95;41.26
51249;BME280;39642;47.556;18.728;2022-07-23T06:49:23;99526.16;;;26.96;41.16
51249;BME280;39642;47.556;18.728;2022-07-23T06:51:49;99518.97;;;26.96;41.13
51249;BME280;39642;47.556;18.728;2022-07-23T06:54:15;99525.72;;;27.00;40.94
51249;BME280;39642;47.556;18.728;2022-07-23T06:56:41;99531.91;;;27.11;40.57
51249;BME280;39642;47.556;18.728;2022-07-23T06:59:08;99524.91;;;27.19;40.33
51249;BME280;39642;47.556;18.728;2022-07-23T07:01:34;99525.38;;;27.25;40.16
51249;BME280;39642;47.556;18.728;2022-07-23T07:04:00;99512.13;;;27.33;39.92
51249;BME280;39642;47.556;18.728;2022-07-23T07:06:26;99514.69;;;27.34;39.87
51249;BME280;39642;47.556;18.728;2022-07-23T07:08:51;99518.19;;;27.35;39.83
51249;BME280;39642;47.556;18.728;2022-07-23T07:11:17;99517.22;;;27.36;39.82
51249;BME280;39642;47.556;18.728;2022-07-23T07:13:43;99516.09;;;27.38;39.74
51249;BME280;39642;47.556;18.728;2022-07-23T07:16:09;99516.78;;;27.40;39.74
51249;BME280;39642;47.556;18.728;2022-07-23T07:18:35;99519.59;;;27.39;40.03
51249;BME280;39642;47.556;18.728;2022-07-23T07:21:01;99515.50;;;27.35;39.86
51249;BME280;39642;47.556;18.728;2022-07-23T07:23:27;99520.03;;;27.34;39.90
51249;BME280;39642;47.556;18.728;2022-07-23T07:25:53;99516.78;;;27.40;39.73
51249;BME280;39642;47.556;18.728;2022-07-23T07:28:19;99512.69;;;27.46;39.56
51249;BME280;39642;47.556;18.728;2022-07-23T07:30:44;99506.37;;;27.47;39.54
51249;BME280;39642;47.556;18.728;2022-07-23T07:33:10;99504.53;;;27.48;39.52
51249;BME280;39642;47.556;18.728;2022-07-23T07:35:36;99506.09;;;27.50;39.48
51249;BME280;39642;47.556;18.728;2022-07-23T07:38:02;99507.75;;;27.51;39.47
51249;BME280;39642;47.556;18.728;2022-07-23T07:40:28;99500.59;;;27.52;39.41
51249;BME280;39642;47.556;18.728;2022-07-23T07:42:54;99508.03;;;27.58;39.29
51249;BME280;39642;47.556;18.728;2022-07-23T07:45:23;99495.81;;;27.65;39.17
51249;BME280;39642;47.556;18.728;2022-07-23T07:47:51;99506.19;;;27.68;39.12
51249;BME280;39642;47.556;18.728;2022-07-23T07:50:18;99508.44;;;27.73;39.18
51249;BME280;39642;47.556;18.728;2022-07-23T07:52:43;99509.16;;;27.75;39.12
51249;BME280;39642;47.556;18.728;2022-07-23T07:55:10;99509.16;;;27.75;39.19
51249;BME280;39642;47.556;18.728;2022-07-23T07:57:36;99510.56;;;27.79;39.10
51249;BME280;39642;47.556;18.728;2022-07-23T08:00:04;99507.19;;;27.77;39.12
51249;BME280;39642;47.556;18.728;2022-07-23T08:02:40;99509.28;;;27.73;39.18
51249;BME280;39642;47.556;18.728;2022-07-23T08:05:06;99504.75;;;27.74;39.19
51249;BME280;39642;47.556;18.728;2022-07-23T08:07:32;99497.31;;;27.77;39.08
51249;BME280;39642;47.556;18.728;2022-07-23T08:09:58;99504.06;;;27.81;38.96
51249;BME280;39642;47.556;18.728;2022-07-23T08:12:24;99507.31;;;27.85;38.90
51249;BME280;39642;47.556;18.728;2022-07-23T08:14:49;99502.81;;;27.86;38.84
51249;BME280;39642;47.556;18.728;2022-07-23T08:17:15;99505.19;;;27.89;38.68
51249;BME280;39642;47.556;18.728;2022-07-23T08:19:41;99509.41;;;27.91;38.57
51249;BME280;39642;47.556;18.728;2022-07-23T08:22:07;99514.22;;;27.88;38.65
51249;BME280;39642;47.556;18.728;2022-07-23T08:24:33;99506.47;;;27.85;38.64
51249;BME280;39642;47.556;18.728;2022-07-23T08:26:59;99517.19;;;27.85;38.64
51249;BME280;39642;47.556;18.728;2022-07-23T08:29:25;99520.81;;;27.83;38.63
51249;BME280;39642;47.556;18.728;2022-07-23T08:31:51;99506.88;;;27.80;38.72
51249;BME280;39642;47.556;18.728;2022-07-23T08:34:17;99510.38;;;27.80;38.63
51249;BME280;39642;47.556;18.728;2022-07-23T08:36:43;99517.75;;;27.88;38.42
51249;BME280;39642;47.556;18.728;2022-07-23T08:39:09;99511.25;;;27.91;38.30
51249;BME280;39642;47.556;18.728;2022-07-23T08:41:35;99508.28;;;27.94;38.15
51249;BME280;39642;47.556;18.728;2022-07-23T08:44:01;99508.28;;;27.94;38.08
51249;BME280;39642;47.556;18.728;2022-07-23T08:46:27;99508.00;;;27.97;37.90
51249;BME280;39642;47.556;18.728;2022-07-23T08:48:54;99493.31;;;28.01;37.74
51249;BME280;39642;47.556;18.728;2022-07-23T08:51:20;99500.78;;;28.07;37.59
51249;BME280;39642;47.556;18.728;2022-07-23T08:53:46;99502.62;;;28.07;37.62
51249;BME280;39642;47.556;18.728;2022-07-23T08:56:12;99495.88;;;28.02;37.60
51249;BME280;39642;47.556;18.728;2022-07-23T08:58:38;99495.88;;;28.02;37.51
51249;BME280;39642;47.556;18.728;2022-07-23T09:01:04;99497.25;;;28.07;37.33
51249;BME280;39642;47.556;18.728;2022-07-23T09:03:32;99490.78;;;28.09;37.24
51249;BME280;39642;47.556;18.728;2022-07-23T09:05:59;99482.75;;;28.09;37.05
51249;BME280;39642;47.556;18.728;2022-07-23T09:08:38;99490.47;;;28.12;37.00
51249;BME280;39642;47.556;18.728;2022-07-23T09:11:09;99488.50;;;28.14;36.91
51249;BME280;39642;47.556;18.728;2022-07-23T09:13:37;99485.81;;;28.14;36.92
51249;BME280;39642;47.556;18.728;2022-07-23T09:16:23;99483.84;;;28.16;36.97
51249;BME280;39642;47.556;18.728;2022-07-23T09:18:53;99490.19;;;28.15;36.97
51249;BME280;39642;47.556;18.728;2022-07-23T09:21:24;99481.72;;;28.20;36.96
51249;BME280;39642;47.556;18.728;2022-07-23T09:24:07;99488.59;;;28.22;36.93
51249;BME280;39642;47.556;18.728;2022-07-23T09:34:30;99477.50;;;28.17;37.01
51249;BME280;39642;47.556;18.728;2022-07-23T09:37:09;99485.22;;;28.20;36.92
51249;BME280;39642;47.556;18.728;2022-07-23T09:39:36;99491.84;;;28.26;36.62
51249;BME280;39642;47.556;18.728;2022-07-23T09:42:23;99490.00;;;28.27;36.50
51249;BME280;39642;47.556;18.728;2022-07-23T09:44:55;99486.50;;;28.26;36.53
51249;BME280;39642;47.556;18.728;2022-07-23T09:47:23;99479.56;;;28.23;36.41
51249;BME280;39642;47.556;18.728;2022-07-23T09:49:59;99479.69;;;28.32;36.16
51249;BME280;39642;47.556;18.728;2022-07-23T09:52:32;99478.53;;;28.34;36.08
51249;BME280;39642;47.556;18.728;2022-07-23T09:55:01;99487.00;;;28.39;35.47
51249;BME280;39642;47.556;18.728;2022-07-23T09:57:27;99471.47;;;28.43;34.96
51249;BME280;39642;47.556;18.728;2022-07-23T10:00:06;99471.47;;;28.43;35.02
51249;BME280;39642;47.556;18.728;2022-07-23T10:02:35;99473.44;;;28.41;35.20
51249;BME280;39642;47.556;18.728;2022-07-23T10:05:01;99460.50;;;28.36;34.86
51249;BME280;39642;47.556;18.728;2022-07-23T10:07:31;99465.84;;;28.36;34.68
51249;BME280;39642;47.556;18.728;2022-07-23T10:09:59;99462.03;;;28.39;34.20
51249;BME280;39642;47.556;18.728;2022-07-23T10:12:26;99466.09;;;28.43;33.96
51249;BME280;39642;47.556;18.728;2022-07-23T10:15:10;99457.22;;;28.42;33.75
51249;BME280;39642;47.556;18.728;2022-07-23T10:17:36;99451.19;;;28.40;33.98
51249;BME280;39642;47.556;18.728;2022-07-23T10:20:04;99449.50;;;28.39;33.55
51249;BME280;39642;47.556;18.728;2022-07-23T10:22:37;99453.53;;;28.43;33.44
51249;BME280;39642;47.556;18.728;2022-07-23T10:30:47;99439.00;;;28.46;33.41
51249;BME280;39642;47.556;18.728;2022-07-23T10:36:23;99443.28;;;28.49;33.56
51249;BME280;39642;47.556;18.728;2022-07-23T10:39:10;99432.81;;;28.45;33.71
51249;BME280;39642;47.556;18.728;2022-07-23T10:41:41;99439.88;;;28.47;33.78
51249;BME280;39642;47.556;18.728;2022-07-23T10:49:33;99426.34;;;28.48;33.80
51249;BME280;39642;47.556;18.728;2022-07-23T10:54:47;99420.53;;;28.53;33.66
51249;BME280;39642;47.556;18.728;2022-07-23T10:57:15;99424.22;;;28.52;33.61
51249;BME280;39642;47.556;18.728;2022-07-23T11:02:28;99416.56;;;28.57;33.83
51249;BME280;39642;47.556;18.728;2022-07-23T11:04:59;99416.03;;;28.53;33.94
51249;BME280;39642;47.556;18.728;2022-07-23T11:07:25;99413.38;;;28.53;34.08
51249;BME280;39642;47.556;18.728;2022-07-23T11:09:51;99410.00;;;28.51;34.18
51249;BME280;39642;47.556;18.728;2022-07-23T11:17:23;99406.16;;;28.54;34.05
51249;BME280;39642;47.556;18.728;2022-07-23T11:22:57;99394.84;;;28.60;33.91
51249;BME280;39642;47.556;18.728;2022-07-23T11:27:55;99382.88;;;28.54;33.98
51249;BME280;39642;47.556;18.728;2022-07-23T11:35:38;99380.34;;;28.53;34.02
51249;BME280;39642;47.556;18.728;2022-07-23T11:38:06;99372.88;;;28.56;33.87
51249;BME280;39642;47.556;18.728;2022-07-23T11:40:33;99378.47;;;28.63;33.80
51249;BME280;39642;47.556;18.728;2022-07-23T11:43:04;99366.44;;;28.67;33.78
51249;BME280;39642;47.556;18.728;2022-07-23T11:45:38;99363.91;;;28.65;33.90
51249;BME280;39642;47.556;18.728;2022-07-23T11:48:07;99359.16;;;28.59;33.97
51249;BME280;39642;47.556;18.728;2022-07-23T11:50:33;99352.44;;;28.55;33.97
51249;BME280;39642;47.556;18.728;2022-07-23T11:52:59;99357.50;;;28.58;33.77
51249;BME280;39642;47.556;18.728;2022-07-23T11:55:25;99361.69;;;28.61;33.83
51249;BME280;39642;47.556;18.728;2022-07-23T11:57:52;99360.84;;;28.60;33.91
51249;BME280;39642;47.556;18.728;2022-07-23T12:00:28;99357.34;;;28.60;34.02
51249;BME280;39642;47.556;18.728;2022-07-23T12:03:01;99356.81;;;28.56;34.16
51249;BME280;39642;47.556;18.728;2022-07-23T12:05:36;99357.12;;;28.53;34.26
51249;BME280;39642;47.556;18.728;2022-07-23T12:08:05;99356.94;;;28.55;34.34
51249;BME280;39642;47.556;18.728;2022-07-23T12:10:39;99350.22;;;28.51;34.49
51249;BME280;39642;47.556;18.728;2022-07-23T12:13:08;99347.13;;;28.45;34.60
51249;BME280;39642;47.556;18.728;2022-07-23T12:15:39;99336.84;;;28.41;34.71
51249;BME280;39642;47.556;18.728;2022-07-23T12:18:07;99335.34;;;28.38;34.83
51249;BME280;39642;47.556;18.728;2022-07-23T12:20:36;99334.50;;;28.38;34.92
51249;BME280;39642;47.556;18.728;2022-07-23T12:23:05;99332.78;;;28.37;34.99
51249;BME280;39642;47.556;18.728;2022-07-23T12:25:33;99332.78;;;28.37;35.06
51249;BME280;39642;47.556;18.728;2022-07-23T12:28:12;99326.47;;;28.38;35.12
51249;BME280;39642;47.556;18.728;2022-07-23T12:30:54;99331.81;;;28.38;35.14
51249;BME280;39642;47.556;18.728;2022-07-23T12:33:23;99321.09;;;28.38;35.21
51249;BME280;39642;47.556;18.728;2022-07-23T12:35:49;99309.25;;;28.40;35.23
51249;BME280;39642;47.556;18.728;2022-07-23T12:38:18;99314.97;;;28.45;35.24
51249;BME280;39642;47.556;18.728;2022-07-23T12:40:58;99304.25;;;28.45;35.25
51249;BME280;39642;47.556;18.728;2022-07-23T12:43:29;99302.88;;;28.41;35.36
51249;BME280;39642;47.556;18.728;2022-07-23T12:45:57;99307.72;;;28.38;35.48
51249;BME280;39642;47.556;18.728;2022-07-23T12:48:31;99315.91;;;28.36;35.59
51249;BME280;39642;47.556;18.728;2022-07-23T12:51:02;99309.84;;;28.34;35.62
51249;BME280;39642;47.556;18.728;2022-07-23T12:53:47;99314.69;;;28.31;35.80
51249;BME280;39642;47.556;18.728;2022-07-23T12:56:16;99306.34;;;28.34;35.78
51249;BME280;39642;47.556;18.728;2022-07-23T12:58:50;99307.03;;;28.36;35.78
51249;BME280;39642;47.556;18.728;2022-07-23T13:06:22;99295.25;;;28.29;36.02
51249;BME280;39642;47.556;18.728;2022-07-23T13:08:48;99287.44;;;28.35;35.87
51249;BME280;39642;47.556;18.728;2022-07-23T13:11:14;99281.62;;;28.40;35.78
51249;BME280;39642;47.556;18.728;2022-07-23T13:13:41;99284.00;;;28.43;35.76
51249;BME280;39642;47.556;18.728;2022-07-23T13:16:07;99282.00;;;28.45;35.71
51249;BME280;39642;47.556;18.728;2022-07-23T13:18:33;99284.69;;;28.45;35.72
51249;BME280;39642;47.556;18.728;2022-07-23T13:20:59;99288.19;;;28.45;35.75
51249;BME280;39642;47.556;18.728;2022-07-23T13:23:25;99280.78;;;28.39;35.87
51249;BME280;39642;47.556;18.728;2022-07-23T13:25:52;99277.44;;;28.37;35.94
51249;BME280;39642;47.556;18.728;2022-07-23T13:28:20;99272.53;;;28.33;36.17
51249;BME280;39642;47.556;18.728;2022-07-23T13:30:47;99281.31;;;28.25;36.70
51249;BME280;39642;47.556;18.728;2022-07-23T13:33:16;99261.66;;;28.16;36.46
51249;BME280;39642;47.556;18.728;2022-07-23T13:35:43;99268.00;;;28.15;36.45
51249;BME280;39642;47.556;18.728;2022-07-23T13:38:09;99256.69;;;28.21;36.35
51249;BME280;39642;47.556;18.728;2022-07-23T13:40:38;99261.72;;;28.24;36.34